Dorsey, Illinois
Current Conditions -  °F | °C
As of 5:35 AM on Friday 21 Nov 2014 (Local Time) from KALN Reporting Station
Clear Clear  
Wind Chill: 13°   Ceiling: Unl
Heat Index: 20°   Visibility: 10mi
Dew Point: 14°   Wind: 6mph
Humidity: 75%   Direction: 90°E
Pressure: 30.4"   Gusts: NA
Location:  38.97°N, 90°W
Report Text: KALN 211135Z AUTO 09005KT 10SM CLR M06/M10 A3040 RMK AO2 T10641101
Loading
Personal Weather Stations






























Interactive Weather Map New forecast layout! Learn more

10-Day Weather Forecast

Advertisements
Track Severe Weather on mobile